createdAt,value
2016-07-19T06:59:03.659Z,30688
2016-07-19T06:59:12.436Z,44896
2016-07-19T06:59:21.190Z,37088
2016-07-19T06:59:29.878Z,34752
2016-07-19T06:59:38.672Z,77120
2016-07-19T06:59:47.420Z,48224
2016-07-19T06:59:56.203Z,36448
2016-07-19T07:00:04.949Z,20800
2016-07-19T07:00:13.662Z,31296
2016-07-19T07:00:22.414Z,25216
2016-07-19T07:00:31.781Z,25472
2016-07-19T07:00:40.551Z,47392
2016-07-19T07:00:49.315Z,36384
2016-07-19T07:00:58.024Z,33152
2016-07-19T07:01:06.754Z,21856
2016-07-19T07:01:15.498Z,15912
2016-07-19T07:01:24.260Z,16796
2016-07-19T07:01:33.017Z,14272
2016-07-19T07:01:41.758Z,15928
2016-07-19T07:01:50.518Z,16216
2016-07-19T07:01:59.266Z,26528
2016-07-19T07:02:08.697Z,22752
2016-07-19T07:02:17.478Z,37024
2016-07-19T07:02:26.192Z,19424
2016-07-19T07:02:34.961Z,28224
2016-07-19T07:02:43.713Z,21920
2016-07-19T07:02:52.439Z,13168
2016-07-19T07:03:02.020Z,14496
2016-07-19T07:03:10.789Z,16136
2016-07-19T07:03:19.549Z,19712
2016-07-19T07:03:28.326Z,18944
2016-07-19T07:03:37.736Z,37760
2016-07-19T07:03:46.512Z,16428
2016-07-19T07:03:55.283Z,24352
2016-07-19T07:04:04.004Z,29600
2016-07-19T07:04:12.736Z,20160
2016-07-19T07:23:51.680Z,69216
2016-07-19T07:39:42.459Z,74752
2016-07-19T07:39:51.221Z,74848
2016-07-19T07:39:59.997Z,74880
2016-07-19T07:40:08.688Z,75040
2016-07-19T07:40:17.443Z,75008
2016-07-19T07:40:26.164Z,74944
2016-07-19T07:40:34.954Z,75264
2016-07-19T07:40:43.661Z,75328
2016-07-19T07:40:52.346Z,75232
2016-07-19T07:41:01.066Z,75392
2016-07-19T07:41:09.833Z,75424
2016-07-19T07:41:18.585Z,75584
2016-07-19T07:41:27.341Z,75840
2016-07-19T07:41:36.119Z,75712
2016-07-19T07:41:44.823Z,75744
2016-07-19T07:41:54.257Z,75808
2016-07-19T07:42:03.010Z,75936
2016-07-19T07:42:11.808Z,75936
2016-07-19T07:42:20.560Z,76032
2016-07-19T07:42:29.317Z,76192
2016-07-19T07:42:38.134Z,76288
2016-07-19T07:42:47.545Z,76288
2016-07-19T07:42:56.332Z,75968
2016-07-19T07:43:05.054Z,76160
2016-07-19T07:43:13.789Z,76288
2016-07-19T07:43:22.507Z,76416
2016-07-19T07:43:31.225Z,76608
2016-07-19T07:43:40.027Z,76576
2016-07-19T07:43:48.726Z,76704
2016-07-19T07:43:57.476Z,76736
2016-07-19T07:44:06.196Z,76736
2016-07-19T07:44:14.949Z,76736
2016-07-19T07:59:34.655Z,6292
2016-07-19T07:59:43.433Z,84768
2016-07-19T07:59:52.170Z,84928
2016-07-19T08:00:00.876Z,85792
2016-07-19T08:00:09.661Z,191648
2016-07-19T08:00:18.371Z,86016
2016-07-19T08:00:27.140Z,85952
2016-07-19T08:00:35.825Z,86208
2016-07-19T08:00:44.512Z,85984
2016-07-19T08:00:53.238Z,86624
2016-07-19T08:01:02.003Z,86752
2016-07-19T08:01:10.752Z,86240
2016-07-19T08:01:19.475Z,86400
2016-07-19T08:01:28.181Z,86720
2016-07-19T08:01:36.872Z,87040
2016-07-19T08:01:45.565Z,87648
2016-07-19T08:01:54.979Z,87520
2016-07-19T08:02:03.722Z,87456
2016-07-19T08:02:12.487Z,88064
2016-07-19T08:02:21.367Z,87840
2016-07-19T08:02:30.830Z,88000
2016-07-19T08:02:39.521Z,88192
2016-07-19T08:02:48.272Z,88320
2016-07-19T08:02:57.030Z,87936
2016-07-19T08:03:05.743Z,88256
2016-07-19T08:03:14.493Z,88384
2016-07-19T08:03:23.197Z,88608
2016-07-19T08:03:31.968Z,88640
2016-07-19T08:03:40.666Z,88736
2016-07-19T08:03:49.373Z,72672
2016-07-19T08:03:58.088Z,73024
2016-07-19T08:04:06.840Z,74144
2016-07-19T08:04:15.595Z,74400
2016-07-19T08:04:24.312Z,75360
2016-07-19T08:04:33.072Z,76800
2016-07-19T08:04:41.813Z,77664
2016-07-19T08:04:50.580Z,77856
2016-07-19T08:04:59.325Z,77696
2016-07-19T08:05:08.081Z,77216
2016-07-19T08:05:16.805Z,77024
2016-07-19T08:05:25.526Z,77056
2016-07-19T08:05:34.225Z,77184
2016-07-19T08:05:43.008Z,77792
2016-07-19T08:05:51.748Z,77888
2016-07-19T08:06:00.445Z,77824
2016-07-19T08:06:09.162Z,77248
2016-07-19T08:06:17.910Z,76896
2016-07-19T08:06:26.630Z,76576
2016-07-19T08:06:35.385Z,76128
2016-07-19T08:06:44.090Z,76352
2016-07-19T08:06:52.812Z,76480
2016-07-19T08:07:01.560Z,76992
2016-07-19T08:07:10.327Z,77280
2016-07-19T08:07:19.048Z,77440
2016-07-19T08:07:27.788Z,77536
2016-07-19T08:07:36.484Z,77568
2016-07-19T08:07:45.194Z,77568
2016-07-19T08:07:53.887Z,77472
2016-07-19T08:08:02.667Z,77408
2016-07-19T08:08:11.451Z,77376
2016-07-19T08:08:20.255Z,77472
2016-07-19T08:08:29.032Z,77504
2016-07-19T08:08:37.782Z,77728
2016-07-19T08:08:46.577Z,77728
2016-07-19T08:08:55.290Z,77920
2016-07-19T08:09:04.011Z,78176
2016-07-19T08:09:12.749Z,78304
2016-07-19T08:09:21.492Z,79008
2016-07-19T08:09:30.206Z,78560
2016-07-19T08:09:38.931Z,78208
2016-07-19T08:09:47.635Z,77568
2016-07-19T08:09:56.401Z,78208
2016-07-19T08:10:05.869Z,78496
2016-07-19T08:10:14.611Z,78880
2016-07-19T08:10:23.333Z,78368
2016-07-19T08:10:32.036Z,78400
2016-07-19T08:10:40.857Z,78592
2016-07-19T08:10:49.673Z,79008
2016-07-19T08:10:58.434Z,79360
2016-07-19T08:11:07.220Z,79584
2016-07-19T08:11:16.009Z,80128
2016-07-19T08:11:24.768Z,81280
2016-07-19T08:11:33.461Z,79520
2016-07-19T08:11:42.190Z,79040
2016-07-19T08:11:50.931Z,79584
2016-07-19T08:11:59.665Z,79648
2016-07-19T08:12:08.405Z,79616
2016-07-19T08:12:17.174Z,80032
2016-07-19T08:12:25.918Z,80544
2016-07-19T08:12:34.671Z,80864
2016-07-19T08:12:43.396Z,81024
2016-07-19T08:12:52.160Z,81696
2016-07-19T08:13:00.916Z,81152
2016-07-19T08:13:09.672Z,82496
2016-07-19T08:13:18.404Z,82400
2016-07-19T08:13:27.156Z,83104
2016-07-19T08:13:35.926Z,83424
2016-07-19T08:13:44.627Z,83584
2016-07-19T08:13:53.321Z,83040
2016-07-19T08:14:02.076Z,82976
2016-07-19T08:14:10.822Z,82112
2016-07-19T08:14:19.576Z,82080
2016-07-19T08:14:28.270Z,81248
2016-07-19T08:14:37.022Z,4776
2016-07-19T08:14:45.758Z,80896
2016-07-19T08:14:54.510Z,80064
2016-07-19T08:15:03.262Z,81280
2016-07-19T08:15:12.007Z,80832
2016-07-19T08:15:20.719Z,81408
2016-07-19T08:15:29.462Z,81568
2016-07-19T08:15:38.230Z,81792
2016-07-19T08:15:46.923Z,82080
2016-07-19T08:15:55.676Z,82272
2016-07-19T08:16:04.415Z,79840
2016-07-19T08:16:13.166Z,79136
2016-07-19T08:16:21.888Z,83936
2016-07-19T08:16:30.650Z,81504
2016-07-19T08:16:39.445Z,78784
2016-07-19T08:16:48.231Z,79776
2016-07-19T08:16:56.954Z,78208
2016-07-19T08:17:05.701Z,78112
2016-07-19T08:17:14.440Z,78144
2016-07-19T08:17:23.181Z,78400
2016-07-19T08:17:31.948Z,79136
2016-07-19T08:17:40.657Z,79552
2016-07-19T08:17:49.412Z,80192
2016-07-19T08:17:58.202Z,80672
2016-07-19T08:18:06.918Z,81216
2016-07-19T08:18:15.645Z,81472
2016-07-19T08:18:24.399Z,81664
2016-07-19T08:18:33.146Z,82400
2016-07-19T08:18:41.944Z,84416
2016-07-19T08:18:50.699Z,77504
2016-07-19T08:18:59.466Z,74688
2016-07-19T08:19:08.257Z,78304
2016-07-19T08:19:17.014Z,75968
2016-07-19T08:19:25.799Z,76096
2016-07-19T08:19:34.602Z,76672
2016-07-19T08:19:43.302Z,101824
2016-07-19T08:19:52.083Z,91136
2016-07-19T08:20:00.816Z,90368
2016-07-19T08:20:09.564Z,90112
2016-07-19T08:20:18.305Z,87040
2016-07-19T08:20:27.022Z,87168
2016-07-19T08:20:35.777Z,87488
2016-07-19T08:20:44.474Z,88128
2016-07-19T08:20:53.248Z,88768
2016-07-19T08:21:01.998Z,88800
2016-07-19T08:21:10.755Z,88352
2016-07-19T08:21:19.445Z,87968
2016-07-19T08:21:28.201Z,88064
2016-07-19T08:21:36.969Z,88352
2016-07-19T08:21:45.748Z,89120
2016-07-19T08:21:54.442Z,91232
2016-07-19T08:22:03.131Z,92128
2016-07-19T08:22:11.828Z,92096
2016-07-19T08:22:21.258Z,91584
2016-07-19T08:22:29.957Z,92032
2016-07-19T08:22:38.680Z,92192
2016-07-19T08:22:47.371Z,91648
2016-07-19T08:22:56.074Z,91744
2016-07-19T08:23:04.842Z,91840
2016-07-19T08:23:14.278Z,91744
2016-07-19T08:23:23.033Z,92064
2016-07-19T08:23:31.753Z,93856
2016-07-19T08:23:40.463Z,94688
2016-07-19T08:23:49.216Z,94592
2016-07-19T08:23:57.941Z,94400
2016-07-19T08:24:06.699Z,92736
2016-07-19T08:24:15.432Z,94944
2016-07-19T08:24:24.177Z,93664
2016-07-19T08:24:32.924Z,93600
2016-07-19T08:24:41.701Z,94976
2016-07-19T08:24:50.479Z,93824
2016-07-19T08:24:59.244Z,93920
2016-07-19T08:25:07.988Z,84000
2016-07-19T08:25:16.718Z,95968
2016-07-19T08:25:25.485Z,88480
2016-07-19T08:25:34.203Z,87680
2016-07-19T08:25:42.959Z,89216
2016-07-19T08:25:51.661Z,89824
2016-07-19T08:26:00.376Z,89184
2016-07-19T08:26:09.066Z,92064
2016-07-19T08:26:17.833Z,91456
2016-07-19T08:26:26.557Z,90848
2016-07-19T08:26:35.270Z,89888
2016-07-19T08:26:43.938Z,88416
2016-07-19T08:26:52.656Z,90176
2016-07-19T08:27:01.366Z,84800
2016-07-19T08:27:10.149Z,90240
2016-07-19T08:27:18.900Z,90368
2016-07-19T08:27:27.669Z,90848
2016-07-19T08:27:36.390Z,90048
2016-07-19T08:27:45.203Z,90752
2016-07-19T08:27:53.936Z,91776
2016-07-19T08:28:02.661Z,92896
2016-07-19T08:28:11.349Z,92416
2016-07-19T08:28:20.049Z,93216
2016-07-19T08:28:28.788Z,113696
2016-07-19T08:28:37.493Z,63200
2016-07-19T08:28:46.243Z,84736
2016-07-19T08:28:54.932Z,76512
2016-07-19T08:29:04.306Z,76928
2016-07-19T08:29:13.011Z,76576
2016-07-19T08:29:21.788Z,77280
2016-07-19T08:29:30.500Z,77568
2016-07-19T08:29:39.250Z,77952
2016-07-19T08:29:47.968Z,76128
2016-07-19T08:29:56.710Z,77248
2016-07-19T08:30:05.403Z,77440
2016-07-19T08:30:14.177Z,76096
2016-07-19T08:30:22.892Z,77184
2016-07-19T08:30:31.649Z,77440
2016-07-19T08:30:40.377Z,73376
2016-07-19T08:30:49.075Z,78912
2016-07-19T08:30:57.827Z,79520
2016-07-19T08:31:06.588Z,83072
2016-07-19T08:31:15.306Z,80608
2016-07-19T08:31:24.046Z,77600
2016-07-19T08:31:32.784Z,78784
2016-07-19T08:31:41.508Z,79776
2016-07-19T08:31:50.300Z,78272
2016-07-19T08:31:59.063Z,79680
2016-07-19T08:32:07.787Z,78336
2016-07-19T08:32:16.549Z,79872
2016-07-19T08:32:25.255Z,74080
2016-07-19T08:32:34.007Z,77568
2016-07-19T08:32:42.691Z,75744
2016-07-19T08:32:51.415Z,75552
2016-07-19T08:33:00.186Z,75232
2016-07-19T08:33:08.913Z,75712
2016-07-19T08:33:17.705Z,75840
2016-07-19T08:33:26.445Z,76736
2016-07-19T08:33:35.162Z,76384
2016-07-19T08:33:43.881Z,76832
2016-07-19T08:33:52.633Z,76640
2016-07-19T08:34:01.359Z,76672
2016-07-19T08:34:10.096Z,76224
2016-07-19T08:34:18.915Z,8356
2016-07-19T08:34:27.669Z,77600
2016-07-19T08:34:36.423Z,77888
2016-07-19T08:34:45.213Z,78272
2016-07-19T08:34:53.994Z,78400
2016-07-19T08:35:02.767Z,78976
2016-07-19T08:35:11.459Z,79424
2016-07-19T08:35:20.220Z,79648
2016-07-19T08:35:28.884Z,79456
2016-07-19T08:35:37.610Z,80480
2016-07-19T08:35:46.378Z,80320
2016-07-19T08:35:55.114Z,80736
2016-07-19T08:36:03.871Z,80768
2016-07-19T08:36:12.687Z,81312
2016-07-19T08:36:21.442Z,81248
2016-07-19T08:36:30.195Z,81888
2016-07-19T08:36:38.952Z,82304
2016-07-19T08:36:47.663Z,82784
2016-07-19T08:36:56.407Z,83392
2016-07-19T08:37:05.198Z,83072
2016-07-19T08:37:13.943Z,83296
2016-07-19T08:37:23.306Z,82304
2016-07-19T08:37:32.028Z,82528
2016-07-19T08:37:40.843Z,82464
2016-07-19T08:37:49.594Z,82496
2016-07-19T08:37:58.302Z,81792
2016-07-19T08:38:07.028Z,81376
2016-07-19T08:38:15.810Z,81024
2016-07-19T08:38:24.526Z,79840
2016-07-19T08:38:33.265Z,79360
2016-07-19T08:38:41.952Z,78880
2016-07-19T08:38:50.781Z,78624
2016-07-19T08:38:59.535Z,78720
2016-07-19T08:39:08.293Z,79008
2016-07-19T08:39:17.079Z,80000
2016-07-19T08:39:25.804Z,81248
2016-07-19T08:39:34.520Z,81984
2016-07-19T08:39:43.231Z,83232
2016-07-19T08:39:52.016Z,83040
2016-07-19T08:40:00.758Z,84256
2016-07-19T08:40:09.463Z,84960
2016-07-19T08:40:18.188Z,83424
2016-07-19T08:40:26.930Z,84576
2016-07-19T08:40:35.626Z,83392
2016-07-19T08:40:44.391Z,83328
2016-07-19T08:40:54.100Z,84000
2016-07-19T08:41:02.824Z,84512
2016-07-19T08:41:11.596Z,84064
2016-07-19T08:41:20.318Z,84448
2016-07-19T08:41:29.101Z,84448
2016-07-19T08:41:37.874Z,85728
2016-07-19T08:41:46.564Z,86656
2016-07-19T08:41:55.296Z,88064
2016-07-19T08:42:04.072Z,88896
2016-07-19T08:42:12.777Z,88704
2016-07-19T08:42:21.573Z,89632
2016-07-19T08:42:30.361Z,89696
2016-07-19T08:42:39.091Z,89568
2016-07-19T08:42:47.823Z,89344
2016-07-19T08:42:56.594Z,88896
2016-07-19T08:43:05.301Z,78080
2016-07-19T08:43:14.823Z,70080
2016-07-19T08:43:23.545Z,90272
2016-07-19T08:43:32.299Z,87712
2016-07-19T08:43:41.111Z,90592
2016-07-19T08:43:49.769Z,90208
2016-07-19T08:43:58.493Z,91008
2016-07-19T08:44:07.191Z,90816
2016-07-19T08:44:15.935Z,90528
2016-07-19T08:44:24.687Z,89984
2016-07-19T08:44:33.379Z,89728
2016-07-19T08:44:42.156Z,89984
2016-07-19T08:44:50.942Z,89536
2016-07-19T08:44:59.669Z,89312
2016-07-19T08:45:08.383Z,90272
2016-07-19T08:45:17.138Z,91904
2016-07-19T08:45:25.915Z,92384
2016-07-19T08:45:34.611Z,92448
2016-07-19T08:45:43.320Z,93152
2016-07-19T08:45:52.047Z,93184
2016-07-19T08:46:01.461Z,92288
2016-07-19T08:46:10.212Z,92928
2016-07-19T08:46:18.936Z,92800
2016-07-19T08:46:27.725Z,92768
2016-07-19T08:46:36.481Z,92928
2016-07-19T08:46:45.205Z,92640
2016-07-19T08:46:53.909Z,93248
2016-07-19T08:47:02.631Z,93280
2016-07-19T08:47:11.327Z,93088
2016-07-19T08:47:19.995Z,93728
2016-07-19T08:47:28.706Z,93440
2016-07-19T08:47:37.505Z,93760
2016-07-19T08:47:46.316Z,94176
2016-07-19T08:47:55.088Z,94272
2016-07-19T08:48:03.833Z,95552
2016-07-19T08:48:12.585Z,96480
2016-07-19T08:48:21.315Z,97536
2016-07-19T08:48:30.022Z,97472
2016-07-19T08:48:38.808Z,97664
2016-07-19T08:48:47.491Z,97632
2016-07-19T08:48:56.879Z,96992
2016-07-19T08:49:05.664Z,95584
2016-07-19T08:49:14.359Z,95232
2016-07-19T08:49:23.145Z,95072
2016-07-19T08:49:31.965Z,94528
2016-07-19T08:49:40.718Z,93600
2016-07-19T08:49:49.429Z,92288
2016-07-19T08:49:58.136Z,90816
2016-07-19T08:50:06.921Z,88928
2016-07-19T08:50:15.621Z,88032
2016-07-19T08:50:24.371Z,86400
2016-07-19T08:50:33.127Z,83808
2016-07-19T08:50:41.819Z,82528
2016-07-19T08:50:50.488Z,81312
2016-07-19T08:50:59.272Z,82944
2016-07-19T08:51:07.984Z,77920
2016-07-19T08:51:16.683Z,77632
2016-07-19T08:51:25.413Z,76576
2016-07-19T08:51:34.197Z,75648
2016-07-19T08:51:42.902Z,74752
2016-07-19T08:51:51.599Z,73152
2016-07-19T08:52:00.321Z,72480
2016-07-19T08:52:09.109Z,71232
2016-07-19T08:52:17.851Z,71232
2016-07-19T08:52:26.613Z,71168
2016-07-19T08:52:36.046Z,71968
2016-07-19T08:52:44.800Z,72864
2016-07-19T08:52:53.555Z,73760
2016-07-19T08:53:02.281Z,73856
2016-07-19T08:53:11.018Z,76704
2016-07-19T08:53:19.840Z,78240
2016-07-19T08:53:28.639Z,80032
2016-07-19T08:53:37.429Z,82176
2016-07-19T08:53:46.212Z,82464
2016-07-19T08:53:54.933Z,83648
2016-07-19T08:54:03.630Z,84768
2016-07-19T08:54:12.350Z,86720
2016-07-19T08:54:21.099Z,87808
2016-07-19T08:54:29.824Z,89760
2016-07-19T08:54:38.560Z,90976
2016-07-19T08:54:47.330Z,92416
2016-07-19T08:54:56.026Z,93280
2016-07-19T08:55:04.786Z,93632
2016-07-19T08:55:13.539Z,93920
2016-07-19T08:55:22.235Z,95104
2016-07-19T08:55:31.001Z,95488
2016-07-19T08:55:39.672Z,96160
2016-07-19T08:55:49.210Z,96704
2016-07-19T08:55:57.975Z,97408
2016-07-19T08:56:06.753Z,97504
2016-07-19T08:56:15.476Z,97280
2016-07-19T08:56:24.196Z,96992
2016-07-19T08:56:32.934Z,96928
2016-07-19T08:56:41.624Z,96608
2016-07-19T08:56:50.383Z,96160
2016-07-19T08:56:59.161Z,96288
2016-07-19T08:57:07.889Z,96064
2016-07-19T08:57:16.617Z,95680
2016-07-19T08:57:25.320Z,95712
2016-07-19T08:57:34.125Z,96000
2016-07-19T08:57:42.884Z,96384
2016-07-19T08:57:52.324Z,96192
2016-07-19T08:58:01.090Z,96512
2016-07-19T08:58:09.776Z,96256
2016-07-19T08:58:18.535Z,96160
2016-07-19T08:58:27.240Z,95968
2016-07-19T08:58:36.027Z,96480
2016-07-19T08:58:44.799Z,96096
2016-07-19T08:58:53.566Z,95936
2016-07-19T08:59:02.354Z,96576
2016-07-19T08:59:11.091Z,96896
2016-07-19T08:59:19.847Z,96480
2016-07-19T08:59:28.590Z,96416
2016-07-19T08:59:37.367Z,53568
2016-07-19T08:59:46.025Z,99712
2016-07-19T08:59:55.399Z,95744
2016-07-19T09:00:04.156Z,94976
2016-07-19T09:00:13.602Z,95392
2016-07-19T09:00:22.297Z,95552
2016-07-19T09:00:31.031Z,95584
2016-07-19T09:00:39.810Z,95712
2016-07-19T09:00:49.286Z,94752
2016-07-19T09:00:57.989Z,94592
2016-07-19T09:01:06.727Z,93920
2016-07-19T09:01:15.502Z,93792
2016-07-19T09:01:24.230Z,93632
2016-07-19T09:01:32.934Z,94080
2016-07-19T09:01:41.689Z,94400
2016-07-19T09:01:50.395Z,94816
2016-07-19T09:01:59.113Z,96128
2016-07-19T09:02:07.846Z,96736
2016-07-19T09:02:16.600Z,97056
2016-07-19T09:02:25.292Z,97472
2016-07-19T09:02:34.022Z,96576
2016-07-19T09:02:42.746Z,97920
2016-07-19T09:02:51.511Z,97664
2016-07-19T09:03:00.304Z,98368
2016-07-19T09:03:09.027Z,98432
2016-07-19T09:03:18.422Z,97824
2016-07-19T09:03:27.196Z,97376
2016-07-19T09:03:36.026Z,98048
2016-07-19T09:03:44.780Z,97984
2016-07-19T09:03:53.548Z,98112
2016-07-19T09:04:02.244Z,97984
2016-07-19T09:04:10.937Z,98400
2016-07-19T09:04:19.634Z,98944
2016-07-19T09:04:28.354Z,98880
2016-07-19T09:04:37.076Z,99680
2016-07-19T09:04:45.764Z,98848
2016-07-19T09:04:54.470Z,98944
2016-07-19T09:05:03.179Z,99264
2016-07-19T09:05:11.912Z,98432
2016-07-19T09:05:20.698Z,97856
2016-07-19T09:05:29.440Z,97600
2016-07-19T09:05:38.113Z,96928
2016-07-19T09:05:46.923Z,96704
2016-07-19T09:05:55.660Z,96544
2016-07-19T09:06:04.395Z,96160
2016-07-19T09:06:13.181Z,96992
2016-07-19T09:06:21.927Z,96192
2016-07-19T09:06:30.691Z,96288
2016-07-19T09:06:39.484Z,96288
2016-07-19T09:06:48.200Z,96448
2016-07-19T09:06:56.936Z,96128
2016-07-19T09:07:05.629Z,96000
2016-07-19T09:07:14.354Z,96992
2016-07-19T09:07:23.788Z,96192
2016-07-19T09:07:32.557Z,96128
2016-07-19T09:07:41.342Z,96000
2016-07-19T09:07:50.045Z,95136
2016-07-19T09:07:58.822Z,95520
2016-07-19T09:08:07.580Z,96608
2016-07-19T09:08:16.279Z,96448
2016-07-19T09:08:24.972Z,96096
2016-07-19T09:08:33.642Z,96608
2016-07-19T09:08:42.449Z,96256
2016-07-19T09:08:51.200Z,98048
2016-07-19T09:08:59.874Z,98496
2016-07-19T09:09:08.556Z,98560
2016-07-19T09:09:17.345Z,98176
2016-07-19T09:09:26.123Z,98880
2016-07-19T09:09:34.879Z,98688
2016-07-19T09:09:43.582Z,99104
2016-07-19T09:09:52.340Z,99360
2016-07-19T09:10:01.066Z,98624
2016-07-19T09:10:09.817Z,98368
2016-07-19T09:10:18.578Z,98336
2016-07-19T09:10:27.313Z,98592
2016-07-19T09:10:36.040Z,98272
2016-07-19T09:10:44.727Z,98624
2016-07-19T09:10:53.496Z,99296
2016-07-19T09:11:02.283Z,100160
2016-07-19T09:11:11.058Z,100800
2016-07-19T09:11:19.787Z,101568
2016-07-19T09:11:28.527Z,102176
2016-07-19T09:11:37.308Z,103456
2016-07-19T09:11:46.107Z,104672
2016-07-19T09:11:54.927Z,97664
2016-07-19T09:12:03.641Z,104544
2016-07-19T09:12:12.317Z,104128
2016-07-19T09:12:21.092Z,102464
2016-07-19T09:12:29.780Z,100064
2016-07-19T09:12:38.467Z,103776
2016-07-19T09:12:47.159Z,103904
2016-07-19T09:12:55.885Z,103232
2016-07-19T09:13:04.625Z,101536
2016-07-19T09:13:13.404Z,101504
2016-07-19T09:13:22.100Z,101184
2016-07-19T09:13:30.833Z,100480
2016-07-19T09:13:39.577Z,100352
2016-07-19T09:13:48.983Z,100736
2016-07-19T09:13:57.712Z,101536
2016-07-19T09:14:06.449Z,101152
2016-07-19T09:14:15.235Z,101696
2016-07-19T09:14:23.991Z,101664
2016-07-19T09:14:32.736Z,101152
2016-07-19T09:14:41.487Z,100704
2016-07-19T09:14:50.214Z,100288
2016-07-19T09:14:58.981Z,99808
2016-07-19T09:15:07.692Z,98912
2016-07-19T09:15:16.382Z,99392
2016-07-19T09:15:25.141Z,99232
2016-07-19T09:15:33.870Z,100160
2016-07-19T09:15:42.558Z,100160
2016-07-19T09:15:51.359Z,98656
2016-07-19T09:16:00.132Z,99392
2016-07-19T09:16:08.910Z,100224
2016-07-19T09:16:17.656Z,97504
2016-07-19T09:16:26.436Z,98080
2016-07-19T09:16:35.125Z,97216
2016-07-19T09:16:43.816Z,96704
2016-07-19T09:16:52.548Z,95936
2016-07-19T09:17:01.263Z,95552
2016-07-19T09:17:09.990Z,97824
2016-07-19T09:17:18.694Z,96960
2016-07-19T09:17:27.489Z,97216
2016-07-19T09:17:36.245Z,96896
2016-07-19T09:17:45.281Z,98432
2016-07-19T09:17:54.034Z,96928
2016-07-19T09:18:02.742Z,98880
2016-07-19T09:18:11.493Z,88704
2016-07-19T09:18:20.230Z,97472
2016-07-19T09:18:28.969Z,100064
2016-07-19T09:18:37.755Z,123584
2016-07-19T09:18:46.433Z,124992
2016-07-19T09:18:55.219Z,124480
2016-07-19T09:19:03.959Z,121344
2016-07-19T09:19:12.726Z,119776
2016-07-19T09:19:21.438Z,122720
2016-07-19T09:19:30.172Z,125600
2016-07-19T09:19:38.887Z,122400
2016-07-19T09:19:47.604Z,121248
2016-07-19T09:19:56.333Z,122016
2016-07-19T09:20:05.030Z,113760
2016-07-19T09:20:13.719Z,114784
2016-07-19T09:20:22.430Z,116064
2016-07-19T09:20:31.141Z,115648
2016-07-19T09:20:39.865Z,116224
2016-07-19T09:20:48.625Z,115968
2016-07-19T09:20:57.383Z,113696
2016-07-19T09:21:06.089Z,118944
2016-07-19T09:21:14.851Z,116704
2016-07-19T09:21:23.601Z,118560
2016-07-19T09:21:32.329Z,116384
2016-07-19T09:21:41.023Z,112832
2016-07-19T09:21:49.789Z,116608
2016-07-19T09:21:58.777Z,115904
2016-07-19T09:22:08.185Z,114816
2016-07-19T09:22:16.959Z,115040
2016-07-19T09:22:25.673Z,115840
2016-07-19T09:22:34.430Z,116544
2016-07-19T09:22:43.210Z,117952
2016-07-19T09:22:52.032Z,114752
2016-07-19T09:23:00.776Z,115776
2016-07-19T09:23:09.571Z,117024
2016-07-19T09:23:18.345Z,113952
2016-07-19T09:23:27.103Z,115712
2016-07-19T09:23:35.864Z,116160
2016-07-19T09:23:44.632Z,114816
2016-07-19T09:23:53.398Z,113344
2016-07-19T09:24:02.154Z,113280
2016-07-19T09:24:10.944Z,115072
2016-07-19T09:24:19.691Z,112864
2016-07-19T09:24:28.465Z,112864
2016-07-19T09:24:37.182Z,112704
2016-07-19T09:24:45.883Z,107360
2016-07-19T09:24:54.594Z,117088
2016-07-19T09:25:03.314Z,103648
2016-07-19T09:25:12.073Z,112288
2016-07-19T09:25:20.804Z,112512
2016-07-19T09:25:29.531Z,112512
2016-07-19T09:25:38.283Z,114272
2016-07-19T09:25:47.040Z,113728
2016-07-19T09:25:55.766Z,113664
2016-07-19T09:26:04.527Z,113440
2016-07-19T09:26:13.303Z,113024
2016-07-19T09:26:22.017Z,112608
2016-07-19T09:26:30.740Z,112448
2016-07-19T09:26:39.466Z,111808
2016-07-19T09:26:48.189Z,112096
2016-07-19T09:26:56.964Z,112032
2016-07-19T09:27:05.761Z,111712
2016-07-19T09:27:14.422Z,111904
2016-07-19T09:27:23.198Z,111424
2016-07-19T09:27:31.914Z,112416
2016-07-19T09:27:40.677Z,113536
2016-07-19T09:27:49.422Z,112672
2016-07-19T09:27:58.178Z,114272
2016-07-19T09:28:06.846Z,114752
2016-07-19T09:28:15.550Z,116800
2016-07-19T09:28:24.328Z,118624
2016-07-19T09:28:33.098Z,119232
2016-07-19T09:28:41.879Z,122112
2016-07-19T09:28:50.637Z,122112
2016-07-19T09:28:59.409Z,120960
2016-07-19T09:29:08.138Z,122624
2016-07-19T09:29:16.926Z,121696
2016-07-19T09:29:25.673Z,121600
2016-07-19T09:29:34.459Z,118528
2016-07-19T09:29:43.227Z,119840
2016-07-19T09:29:51.945Z,120832
2016-07-19T09:30:00.680Z,119008
2016-07-19T09:30:09.411Z,121152
2016-07-19T09:30:18.158Z,120960
2016-07-19T09:30:26.916Z,121728
2016-07-19T09:30:35.623Z,122176
2016-07-19T09:30:44.411Z,122592
2016-07-19T09:30:53.121Z,122880
2016-07-19T09:31:01.846Z,122688
2016-07-19T09:31:10.533Z,121088
2016-07-19T09:31:19.309Z,125376
2016-07-19T09:31:28.066Z,125440
2016-07-19T09:31:36.824Z,126176
2016-07-19T09:31:45.617Z,127392
2016-07-19T09:31:54.374Z,128352
2016-07-19T09:32:03.165Z,128128
2016-07-19T09:32:11.929Z,128800
2016-07-19T09:32:20.641Z,128672
2016-07-19T09:32:29.371Z,127680
2016-07-19T09:32:38.119Z,128704
2016-07-19T09:32:46.858Z,127936
2016-07-19T09:32:55.634Z,128608
2016-07-19T09:33:04.405Z,128288
2016-07-19T09:33:13.131Z,128608
2016-07-19T09:33:21.849Z,123488
2016-07-19T09:33:30.543Z,124960
2016-07-19T09:33:39.275Z,125248
2016-07-19T09:33:48.069Z,125760
2016-07-19T09:33:56.796Z,127584
2016-07-19T09:34:05.574Z,128256
2016-07-19T09:34:14.368Z,49856
2016-07-19T09:34:23.158Z,45312
2016-07-19T09:34:31.854Z,69248
2016-07-19T09:34:40.636Z,84192
2016-07-19T09:34:49.376Z,83552
2016-07-19T09:34:58.132Z,33024
2016-07-19T09:35:06.887Z,27680
2016-07-19T09:35:15.694Z,26400
2016-07-19T09:35:24.423Z,25248
2016-07-19T09:35:33.162Z,24576
2016-07-19T09:35:41.922Z,24320
2016-07-19T09:35:50.652Z,24320
2016-07-19T09:35:59.347Z,24768
2016-07-19T09:36:08.011Z,25024
2016-07-19T09:36:17.436Z,24736
2016-07-19T09:36:26.148Z,24352
2016-07-19T09:36:34.904Z,24224
2016-07-19T09:36:43.607Z,24416
2016-07-19T09:36:52.289Z,24224
2016-07-19T09:37:01.028Z,23360
2016-07-19T09:37:09.794Z,22464
2016-07-19T09:37:18.587Z,22752
2016-07-19T09:37:27.313Z,23360
2016-07-19T09:37:36.805Z,24032
2016-07-19T09:37:45.535Z,25216
2016-07-19T09:37:54.521Z,30144
2016-07-19T09:38:04.013Z,66400
2016-07-19T09:38:13.512Z,124736
2016-07-19T09:38:22.292Z,115424
2016-07-19T09:38:31.038Z,123424
2016-07-19T09:38:39.964Z,133920
2016-07-19T09:38:48.698Z,135904
2016-07-19T09:38:57.427Z,132544
2016-07-19T09:39:06.329Z,130720
2016-07-19T09:39:15.024Z,130528
2016-07-19T09:39:23.792Z,130400
2016-07-19T09:39:32.553Z,131008
2016-07-19T09:39:41.236Z,132096
2016-07-19T09:39:49.956Z,133696
2016-07-19T09:39:58.681Z,133568
2016-07-19T09:40:07.450Z,132640
2016-07-19T09:40:16.229Z,130752
2016-07-19T09:40:24.988Z,129056
2016-07-19T09:40:33.724Z,128128
2016-07-19T09:40:42.464Z,126176
2016-07-19T09:40:51.224Z,125888
2016-07-19T09:40:59.950Z,124896
2016-07-19T09:41:08.737Z,125056
2016-07-19T09:41:17.490Z,125280
2016-07-19T09:41:26.266Z,125600
2016-07-19T09:41:35.031Z,126272